aviador You're here:

KMQJ Decoded Metar

in
Report Time2017-11-23 03:17:00
UTC Time2017-11-23 03:35:11
Flight Rules vfr VFR
WindCalm
Visibility9999 m
Phenomena:N/A
Clouds:N/A
CeilingNone
Temp-4°C
Dew Point-4°C (100% RH)
AAT-6.5°C
QNH1024 hPa
Raw Report
KMQJ 230317Z AUTO 00000KT 10SM CLR M04/M04 A3025 RMK AO1=

Extra information for KMQJ:More info

Social comments